sensor_id;sensor_type;location;lat;lon;timestamp;pressure;altitude;pressure_sealevel;temperature
11849;BMP180;5983;49.966;8.052;2022-09-12T00:01:19;100706.00;;;15.50
11849;BMP180;5983;49.966;8.052;2022-09-12T00:03:50;100711.00;;;15.50
11849;BMP180;5983;49.966;8.052;2022-09-12T00:06:20;100707.00;;;15.50
11849;BMP180;5983;49.966;8.052;2022-09-12T00:08:47;100697.00;;;15.40
11849;BMP180;5983;49.966;8.052;2022-09-12T00:11:14;100702.00;;;15.40
11849;BMP180;5983;49.966;8.052;2022-09-12T00:13:42;100705.00;;;15.40
11849;BMP180;5983;49.966;8.052;2022-09-12T00:16:20;100700.00;;;15.40
11849;BMP180;5983;49.966;8.052;2022-09-12T00:18:48;100702.00;;;15.40
11849;BMP180;5983;49.966;8.052;2022-09-12T00:21:17;100705.00;;;15.30
11849;BMP180;5983;49.966;8.052;2022-09-12T00:23:45;100705.00;;;15.30
11849;BMP180;5983;49.966;8.052;2022-09-12T00:26:12;100695.00;;;15.20
11849;BMP180;5983;49.966;8.052;2022-09-12T00:28:40;100697.00;;;15.20
11849;BMP180;5983;49.966;8.052;2022-09-12T00:31:10;100692.00;;;15.10
11849;BMP180;5983;49.966;8.052;2022-09-12T00:33:40;100690.00;;;15.10
11849;BMP180;5983;49.966;8.052;2022-09-12T00:36:10;100696.00;;;15.10
11849;BMP180;5983;49.966;8.052;2022-09-12T00:38:39;100691.00;;;15.10
11849;BMP180;5983;49.966;8.052;2022-09-12T00:41:12;100690.00;;;15.20
11849;BMP180;5983;49.966;8.052;2022-09-12T00:43:43;100682.00;;;15.20
11849;BMP180;5983;49.966;8.052;2022-09-12T00:46:23;100676.00;;;15.20
11849;BMP180;5983;49.966;8.052;2022-09-12T00:48:58;100677.00;;;15.10
11849;BMP180;5983;49.966;8.052;2022-09-12T00:51:28;100685.00;;;15.10
11849;BMP180;5983;49.966;8.052;2022-09-12T00:54:02;100677.00;;;15.10
11849;BMP180;5983;49.966;8.052;2022-09-12T00:56:32;100675.00;;;15.10
11849;BMP180;5983;49.966;8.052;2022-09-12T00:59:06;100673.00;;;15.10
11849;BMP180;5983;49.966;8.052;2022-09-12T01:01:35;100675.00;;;15.00
11849;BMP180;5983;49.966;8.052;2022-09-12T01:04:05;100674.00;;;15.00
11849;BMP180;5983;49.966;8.052;2022-09-12T01:06:36;100672.00;;;14.90
11849;BMP180;5983;49.966;8.052;2022-09-12T01:09:06;100672.00;;;14.90
11849;BMP180;5983;49.966;8.052;2022-09-12T01:11:36;100678.00;;;14.80
11849;BMP180;5983;49.966;8.052;2022-09-12T01:14:05;100674.00;;;14.80
11849;BMP180;5983;49.966;8.052;2022-09-12T01:16:34;100677.00;;;14.80
11849;BMP180;5983;49.966;8.052;2022-09-12T01:22:35;100666.00;;;14.90
11849;BMP180;5983;49.966;8.052;2022-09-12T01:25:19;100669.00;;;14.90
11849;BMP180;5983;49.966;8.052;2022-09-12T01:28:15;100662.00;;;14.80
11849;BMP180;5983;49.966;8.052;2022-09-12T01:30:58;100666.00;;;14.70
11849;BMP180;5983;49.966;8.052;2022-09-12T01:33:45;100655.00;;;14.70
11849;BMP180;5983;49.966;8.052;2022-09-12T01:36:41;100655.00;;;14.70
11849;BMP180;5983;49.966;8.052;2022-09-12T01:39:25;100656.00;;;14.70
11849;BMP180;5983;49.966;8.052;2022-09-12T01:42:07;100657.00;;;14.60
11849;BMP180;5983;49.966;8.052;2022-09-12T01:44:45;100665.00;;;14.50
11849;BMP180;5983;49.966;8.052;2022-09-12T01:47:22;100653.00;;;14.40
11849;BMP180;5983;49.966;8.052;2022-09-12T01:50:03;100658.00;;;14.40
11849;BMP180;5983;49.966;8.052;2022-09-12T01:52:37;100653.00;;;14.40
11849;BMP180;5983;49.966;8.052;2022-09-12T01:55:10;100671.00;;;14.40
11849;BMP180;5983;49.966;8.052;2022-09-12T01:57:43;100660.00;;;14.40
11849;BMP180;5983;49.966;8.052;2022-09-12T02:00:12;100660.00;;;14.40
11849;BMP180;5983;49.966;8.052;2022-09-12T02:02:46;100649.00;;;14.40
11849;BMP180;5983;49.966;8.052;2022-09-12T02:05:19;100650.00;;;14.30
11849;BMP180;5983;49.966;8.052;2022-09-12T02:07:55;100643.00;;;14.40
11849;BMP180;5983;49.966;8.052;2022-09-12T02:10:29;100646.00;;;14.30
11849;BMP180;5983;49.966;8.052;2022-09-12T02:13:02;100647.00;;;14.20
11849;BMP180;5983;49.966;8.052;2022-09-12T02:15:37;100651.00;;;14.20
11849;BMP180;5983;49.966;8.052;2022-09-12T02:18:11;100647.00;;;14.20
11849;BMP180;5983;49.966;8.052;2022-09-12T02:20:42;100636.00;;;14.20
11849;BMP180;5983;49.966;8.052;2022-09-12T02:23:15;100638.00;;;14.20
11849;BMP180;5983;49.966;8.052;2022-09-12T02:25:47;100638.00;;;14.20
11849;BMP180;5983;49.966;8.052;2022-09-12T02:28:22;100640.00;;;14.20
11849;BMP180;5983;49.966;8.052;2022-09-12T02:31:02;100643.00;;;14.20
11849;BMP180;5983;49.966;8.052;2022-09-12T02:33:44;100635.00;;;14.20
11849;BMP180;5983;49.966;8.052;2022-09-12T02:36:26;100629.00;;;14.20
11849;BMP180;5983;49.966;8.052;2022-09-12T02:39:01;100628.00;;;14.10
11849;BMP180;5983;49.966;8.052;2022-09-12T02:41:29;100627.00;;;14.10
11849;BMP180;5983;49.966;8.052;2022-09-12T02:43:56;100631.00;;;14.10
11849;BMP180;5983;49.966;8.052;2022-09-12T02:46:31;100625.00;;;14.10
11849;BMP180;5983;49.966;8.052;2022-09-12T02:49:01;100628.00;;;14.10
11849;BMP180;5983;49.966;8.052;2022-09-12T02:51:28;100636.00;;;14.10
11849;BMP180;5983;49.966;8.052;2022-09-12T02:53:55;100630.00;;;14.00
11849;BMP180;5983;49.966;8.052;2022-09-12T02:56:28;100642.00;;;14.00
11849;BMP180;5983;49.966;8.052;2022-09-12T02:59:02;100630.00;;;13.90
11849;BMP180;5983;49.966;8.052;2022-09-12T03:01:51;100635.00;;;13.90
11849;BMP180;5983;49.966;8.052;2022-09-12T03:04:46;100628.00;;;13.90
11849;BMP180;5983;49.966;8.052;2022-09-12T03:07:32;100619.00;;;13.80
11849;BMP180;5983;49.966;8.052;2022-09-12T03:10:11;100622.00;;;13.80
11849;BMP180;5983;49.966;8.052;2022-09-12T03:12:53;100627.00;;;13.80
11849;BMP180;5983;49.966;8.052;2022-09-12T03:15:38;100627.00;;;13.80
11849;BMP180;5983;49.966;8.052;2022-09-12T03:18:22;100626.00;;;13.80
11849;BMP180;5983;49.966;8.052;2022-09-12T03:21:03;100627.00;;;13.80
11849;BMP180;5983;49.966;8.052;2022-09-12T03:23:37;100629.00;;;13.70
11849;BMP180;5983;49.966;8.052;2022-09-12T03:26:11;100621.00;;;13.70
11849;BMP180;5983;49.966;8.052;2022-09-12T03:28:41;100622.00;;;13.70
11849;BMP180;5983;49.966;8.052;2022-09-12T03:31:14;100616.00;;;13.70
11849;BMP180;5983;49.966;8.052;2022-09-12T03:33:42;100617.00;;;13.70
11849;BMP180;5983;49.966;8.052;2022-09-12T03:36:15;100624.00;;;13.70
11849;BMP180;5983;49.966;8.052;2022-09-12T03:38:42;100619.00;;;13.70
11849;BMP180;5983;49.966;8.052;2022-09-12T03:41:09;100625.00;;;13.60
11849;BMP180;5983;49.966;8.052;2022-09-12T03:43:36;100616.00;;;13.60
11849;BMP180;5983;49.966;8.052;2022-09-12T03:46:03;100622.00;;;13.60
11849;BMP180;5983;49.966;8.052;2022-09-12T03:48:30;100621.00;;;13.60
11849;BMP180;5983;49.966;8.052;2022-09-12T03:50:59;100628.00;;;13.60
11849;BMP180;5983;49.966;8.052;2022-09-12T03:53:28;100623.00;;;13.60
11849;BMP180;5983;49.966;8.052;2022-09-12T03:55:56;100620.00;;;13.50
11849;BMP180;5983;49.966;8.052;2022-09-12T03:58:24;100619.00;;;13.50
11849;BMP180;5983;49.966;8.052;2022-09-12T04:00:51;100619.00;;;13.50
11849;BMP180;5983;49.966;8.052;2022-09-12T04:03:18;100616.00;;;13.50
11849;BMP180;5983;49.966;8.052;2022-09-12T04:05:44;100617.00;;;13.50
11849;BMP180;5983;49.966;8.052;2022-09-12T04:08:12;100617.00;;;13.40
11849;BMP180;5983;49.966;8.052;2022-09-12T04:10:40;100623.00;;;13.40
11849;BMP180;5983;49.966;8.052;2022-09-12T04:13:07;100628.00;;;13.40
11849;BMP180;5983;49.966;8.052;2022-09-12T04:15:34;100629.00;;;13.30
11849;BMP180;5983;49.966;8.052;2022-09-12T04:18:01;100620.00;;;13.30
11849;BMP180;5983;49.966;8.052;2022-09-12T04:20:28;100622.00;;;13.30
11849;BMP180;5983;49.966;8.052;2022-09-12T04:22:55;100629.00;;;13.40
11849;BMP180;5983;49.966;8.052;2022-09-12T04:25:22;100617.00;;;13.30
11849;BMP180;5983;49.966;8.052;2022-09-12T04:27:50;100617.00;;;13.30
11849;BMP180;5983;49.966;8.052;2022-09-12T04:30:17;100621.00;;;13.30
11849;BMP180;5983;49.966;8.052;2022-09-12T04:32:44;100616.00;;;13.30
11849;BMP180;5983;49.966;8.052;2022-09-12T04:35:11;100620.00;;;13.20
11849;BMP180;5983;49.966;8.052;2022-09-12T04:37:38;100623.00;;;13.30
11849;BMP180;5983;49.966;8.052;2022-09-12T04:40:06;100632.00;;;13.40
11849;BMP180;5983;49.966;8.052;2022-09-12T04:42:34;100632.00;;;13.40
11849;BMP180;5983;49.966;8.052;2022-09-12T04:45:02;100629.00;;;13.30
11849;BMP180;5983;49.966;8.052;2022-09-12T04:47:30;100626.00;;;13.30
11849;BMP180;5983;49.966;8.052;2022-09-12T04:49:57;100619.00;;;13.30
11849;BMP180;5983;49.966;8.052;2022-09-12T04:52:24;100620.00;;;13.30
11849;BMP180;5983;49.966;8.052;2022-09-12T04:54:51;100622.00;;;13.20
11849;BMP180;5983;49.966;8.052;2022-09-12T04:57:18;100617.00;;;13.20
11849;BMP180;5983;49.966;8.052;2022-09-12T04:59:48;100622.00;;;13.20
11849;BMP180;5983;49.966;8.052;2022-09-12T05:02:16;100625.00;;;13.20
11849;BMP180;5983;49.966;8.052;2022-09-12T05:04:45;100627.00;;;13.10
11849;BMP180;5983;49.966;8.052;2022-09-12T05:07:13;100625.00;;;13.10
11849;BMP180;5983;49.966;8.052;2022-09-12T05:09:39;100629.00;;;13.10
11849;BMP180;5983;49.966;8.052;2022-09-12T05:12:06;100617.00;;;13.00
11849;BMP180;5983;49.966;8.052;2022-09-12T05:14:34;100618.00;;;13.00
11849;BMP180;5983;49.966;8.052;2022-09-12T05:17:03;100619.00;;;13.00
11849;BMP180;5983;49.966;8.052;2022-09-12T05:19:31;100627.00;;;13.10
11849;BMP180;5983;49.966;8.052;2022-09-12T05:21:59;100631.00;;;13.10
11849;BMP180;5983;49.966;8.052;2022-09-12T05:24:26;100630.00;;;13.10
11849;BMP180;5983;49.966;8.052;2022-09-12T05:26:53;100639.00;;;13.10
11849;BMP180;5983;49.966;8.052;2022-09-12T05:29:20;100629.00;;;13.10
11849;BMP180;5983;49.966;8.052;2022-09-12T05:31:47;100628.00;;;13.10
11849;BMP180;5983;49.966;8.052;2022-09-12T05:34:16;100632.00;;;13.10
11849;BMP180;5983;49.966;8.052;2022-09-12T05:36:44;100627.00;;;13.20
11849;BMP180;5983;49.966;8.052;2022-09-12T05:39:11;100626.00;;;13.30
11849;BMP180;5983;49.966;8.052;2022-09-12T05:41:38;100619.00;;;13.30
11849;BMP180;5983;49.966;8.052;2022-09-12T05:44:10;100614.00;;;13.30
11849;BMP180;5983;49.966;8.052;2022-09-12T05:46:41;100607.00;;;13.30
11849;BMP180;5983;49.966;8.052;2022-09-12T05:49:09;100623.00;;;13.40
11849;BMP180;5983;49.966;8.052;2022-09-12T05:51:42;100623.00;;;13.50
11849;BMP180;5983;49.966;8.052;2022-09-12T05:54:13;100618.00;;;13.50
11849;BMP180;5983;49.966;8.052;2022-09-12T05:56:43;100622.00;;;13.60
11849;BMP180;5983;49.966;8.052;2022-09-12T05:59:12;100629.00;;;13.70
11849;BMP180;5983;49.966;8.052;2022-09-12T06:01:40;100629.00;;;13.80
11849;BMP180;5983;49.966;8.052;2022-09-12T06:04:07;100631.00;;;13.90
11849;BMP180;5983;49.966;8.052;2022-09-12T06:06:38;100620.00;;;13.90
11849;BMP180;5983;49.966;8.052;2022-09-12T06:09:06;100620.00;;;14.00
11849;BMP180;5983;49.966;8.052;2022-09-12T06:11:36;100627.00;;;14.10
11849;BMP180;5983;49.966;8.052;2022-09-12T06:14:07;100620.00;;;14.30
11849;BMP180;5983;49.966;8.052;2022-09-12T06:16:35;100630.00;;;14.50
11849;BMP180;5983;49.966;8.052;2022-09-12T06:19:05;100622.00;;;14.70
11849;BMP180;5983;49.966;8.052;2022-09-12T06:21:33;100627.00;;;14.80
11849;BMP180;5983;49.966;8.052;2022-09-12T06:24:03;100634.00;;;14.80
11849;BMP180;5983;49.966;8.052;2022-09-12T06:26:31;100634.00;;;14.80
11849;BMP180;5983;49.966;8.052;2022-09-12T06:29:00;100633.00;;;14.90
11849;BMP180;5983;49.966;8.052;2022-09-12T06:31:30;100632.00;;;15.00
11849;BMP180;5983;49.966;8.052;2022-09-12T06:34:00;100635.00;;;15.00
11849;BMP180;5983;49.966;8.052;2022-09-12T06:36:30;100645.00;;;15.10
11849;BMP180;5983;49.966;8.052;2022-09-12T06:39:00;100647.00;;;15.20
11849;BMP180;5983;49.966;8.052;2022-09-12T06:41:28;100639.00;;;15.20
11849;BMP180;5983;49.966;8.052;2022-09-12T06:43:56;100643.00;;;15.20
11849;BMP180;5983;49.966;8.052;2022-09-12T06:46:26;100638.00;;;15.20
11849;BMP180;5983;49.966;8.052;2022-09-12T06:48:55;100646.00;;;15.30
11849;BMP180;5983;49.966;8.052;2022-09-12T06:51:23;100643.00;;;15.30
11849;BMP180;5983;49.966;8.052;2022-09-12T06:53:53;100640.00;;;15.40
11849;BMP180;5983;49.966;8.052;2022-09-12T06:56:23;100628.00;;;15.50
11849;BMP180;5983;49.966;8.052;2022-09-12T06:58:52;100640.00;;;15.50
11849;BMP180;5983;49.966;8.052;2022-09-12T07:01:21;100638.00;;;15.60
11849;BMP180;5983;49.966;8.052;2022-09-12T07:03:51;100629.00;;;15.70
11849;BMP180;5983;49.966;8.052;2022-09-12T07:06:24;100627.00;;;15.80
11849;BMP180;5983;49.966;8.052;2022-09-12T07:08:57;100629.00;;;15.90
11849;BMP180;5983;49.966;8.052;2022-09-12T07:11:27;100633.00;;;16.00
11849;BMP180;5983;49.966;8.052;2022-09-12T07:13:57;100635.00;;;15.90
11849;BMP180;5983;49.966;8.052;2022-09-12T07:16:24;100642.00;;;15.90
11849;BMP180;5983;49.966;8.052;2022-09-12T07:18:55;100644.00;;;15.90
11849;BMP180;5983;49.966;8.052;2022-09-12T07:21:22;100647.00;;;16.30
11849;BMP180;5983;49.966;8.052;2022-09-12T07:23:50;100644.00;;;16.80
11849;BMP180;5983;49.966;8.052;2022-09-12T07:26:19;100647.00;;;17.20
11849;BMP180;5983;49.966;8.052;2022-09-12T07:28:50;100650.00;;;17.50
11849;BMP180;5983;49.966;8.052;2022-09-12T07:31:21;100649.00;;;18.10
11849;BMP180;5983;49.966;8.052;2022-09-12T07:33:49;100637.00;;;19.30
11849;BMP180;5983;49.966;8.052;2022-09-12T07:36:21;100644.00;;;20.10
11849;BMP180;5983;49.966;8.052;2022-09-12T07:38:52;100634.00;;;20.20
11849;BMP180;5983;49.966;8.052;2022-09-12T07:41:22;100639.00;;;20.00
11849;BMP180;5983;49.966;8.052;2022-09-12T07:43:51;100640.00;;;20.20
11849;BMP180;5983;49.966;8.052;2022-09-12T07:46:19;100631.00;;;20.70
11849;BMP180;5983;49.966;8.052;2022-09-12T07:48:49;100632.00;;;21.40
11849;BMP180;5983;49.966;8.052;2022-09-12T07:51:18;100630.00;;;22.40
11849;BMP180;5983;49.966;8.052;2022-09-12T07:53:46;100618.00;;;23.20
11849;BMP180;5983;49.966;8.052;2022-09-12T07:56:14;100620.00;;;23.80
11849;BMP180;5983;49.966;8.052;2022-09-12T07:58:43;100619.00;;;24.30
11849;BMP180;5983;49.966;8.052;2022-09-12T08:01:12;100629.00;;;24.70
11849;BMP180;5983;49.966;8.052;2022-09-12T08:03:40;100637.00;;;25.40
11849;BMP180;5983;49.966;8.052;2022-09-12T08:06:10;100637.00;;;26.20
11849;BMP180;5983;49.966;8.052;2022-09-12T08:08:40;100647.00;;;27.00
11849;BMP180;5983;49.966;8.052;2022-09-12T08:11:10;100636.00;;;27.60
11849;BMP180;5983;49.966;8.052;2022-09-12T08:13:39;100639.00;;;28.10
11849;BMP180;5983;49.966;8.052;2022-09-12T08:16:10;100643.00;;;28.60
11849;BMP180;5983;49.966;8.052;2022-09-12T08:18:38;100643.00;;;28.70
11849;BMP180;5983;49.966;8.052;2022-09-12T08:21:11;100658.00;;;28.80
11849;BMP180;5983;49.966;8.052;2022-09-12T08:23:40;100659.00;;;29.30
11849;BMP180;5983;49.966;8.052;2022-09-12T08:26:07;100663.00;;;29.70
11849;BMP180;5983;49.966;8.052;2022-09-12T08:28:35;100663.00;;;30.20
11849;BMP180;5983;49.966;8.052;2022-09-12T08:31:07;100659.00;;;30.30
11849;BMP180;5983;49.966;8.052;2022-09-12T08:33:36;100663.00;;;29.90
11849;BMP180;5983;49.966;8.052;2022-09-12T08:36:05;100658.00;;;29.80
11849;BMP180;5983;49.966;8.052;2022-09-12T08:38:33;100671.00;;;29.20
11849;BMP180;5983;49.966;8.052;2022-09-12T08:41:20;100675.00;;;28.90
11849;BMP180;5983;49.966;8.052;2022-09-12T08:44:30;100677.00;;;28.90
11849;BMP180;5983;49.966;8.052;2022-09-12T08:47:21;100675.00;;;28.90
11849;BMP180;5983;49.966;8.052;2022-09-12T08:50:01;100674.00;;;29.20
11849;BMP180;5983;49.966;8.052;2022-09-12T08:52:36;100676.00;;;29.40
11849;BMP180;5983;49.966;8.052;2022-09-12T08:55:17;100669.00;;;29.90
11849;BMP180;5983;49.966;8.052;2022-09-12T08:57:49;100667.00;;;29.80
11849;BMP180;5983;49.966;8.052;2022-09-12T09:00:18;100667.00;;;29.40
11849;BMP180;5983;49.966;8.052;2022-09-12T09:03:11;100663.00;;;29.40
11849;BMP180;5983;49.966;8.052;2022-09-12T09:05:51;100659.00;;;29.50
11849;BMP180;5983;49.966;8.052;2022-09-12T09:08:47;100661.00;;;29.40
11849;BMP180;5983;49.966;8.052;2022-09-12T09:11:33;100653.00;;;28.80
11849;BMP180;5983;49.966;8.052;2022-09-12T09:14:24;100655.00;;;28.20
11849;BMP180;5983;49.966;8.052;2022-09-12T09:17:18;100662.00;;;27.70
11849;BMP180;5983;49.966;8.052;2022-09-12T09:19:52;100650.00;;;27.30
11849;BMP180;5983;49.966;8.052;2022-09-12T09:22:34;100658.00;;;27.10
11849;BMP180;5983;49.966;8.052;2022-09-12T09:25:08;100657.00;;;27.10
11849;BMP180;5983;49.966;8.052;2022-09-12T09:27:45;100649.00;;;26.90
11849;BMP180;5983;49.966;8.052;2022-09-12T09:30:18;100656.00;;;26.70
11849;BMP180;5983;49.966;8.052;2022-09-12T09:32:50;100650.00;;;26.70
11849;BMP180;5983;49.966;8.052;2022-09-12T09:35:28;100655.00;;;26.70
11849;BMP180;5983;49.966;8.052;2022-09-12T09:38:06;100654.00;;;26.60
11849;BMP180;5983;49.966;8.052;2022-09-12T09:40:56;100649.00;;;26.90
11849;BMP180;5983;49.966;8.052;2022-09-12T09:43:25;100642.00;;;27.30
11849;BMP180;5983;49.966;8.052;2022-09-12T09:45:56;100640.00;;;27.60
11849;BMP180;5983;49.966;8.052;2022-09-12T09:48:27;100634.00;;;27.80
11849;BMP180;5983;49.966;8.052;2022-09-12T09:50:58;100638.00;;;27.80
11849;BMP180;5983;49.966;8.052;2022-09-12T09:53:36;100638.00;;;28.00
11849;BMP180;5983;49.966;8.052;2022-09-12T09:56:11;100633.00;;;28.00
11849;BMP180;5983;49.966;8.052;2022-09-12T09:58:40;100631.00;;;27.90
11849;BMP180;5983;49.966;8.052;2022-09-12T10:01:14;100635.00;;;28.00
11849;BMP180;5983;49.966;8.052;2022-09-12T10:03:49;100633.00;;;27.80
11849;BMP180;5983;49.966;8.052;2022-09-12T10:06:29;100631.00;;;27.80
11849;BMP180;5983;49.966;8.052;2022-09-12T10:09:19;100629.00;;;27.60
11849;BMP180;5983;49.966;8.052;2022-09-12T10:11:48;100621.00;;;27.50
11849;BMP180;5983;49.966;8.052;2022-09-12T10:14:37;100615.00;;;27.60
11849;BMP180;5983;49.966;8.052;2022-09-12T10:17:25;100615.00;;;27.40
11849;BMP180;5983;49.966;8.052;2022-09-12T10:19:53;100606.00;;;27.50
11849;BMP180;5983;49.966;8.052;2022-09-12T10:22:24;100604.00;;;27.10
11849;BMP180;5983;49.966;8.052;2022-09-12T10:24:55;100601.00;;;26.90
11849;BMP180;5983;49.966;8.052;2022-09-12T10:27:27;100600.00;;;26.60
11849;BMP180;5983;49.966;8.052;2022-09-12T10:30:02;100599.00;;;26.50
11849;BMP180;5983;49.966;8.052;2022-09-12T10:32:37;100597.00;;;26.60
11849;BMP180;5983;49.966;8.052;2022-09-12T10:35:15;100590.00;;;26.90
11849;BMP180;5983;49.966;8.052;2022-09-12T10:37:53;100586.00;;;27.00
11849;BMP180;5983;49.966;8.052;2022-09-12T10:40:24;100591.00;;;27.00
11849;BMP180;5983;49.966;8.052;2022-09-12T10:42:54;100591.00;;;27.00
11849;BMP180;5983;49.966;8.052;2022-09-12T10:45:26;100600.00;;;27.10
11849;BMP180;5983;49.966;8.052;2022-09-12T10:47:57;100593.00;;;27.10
11849;BMP180;5983;49.966;8.052;2022-09-12T10:50:28;100590.00;;;27.10
11849;BMP180;5983;49.966;8.052;2022-09-12T10:53:15;100579.00;;;26.90
11849;BMP180;5983;49.966;8.052;2022-09-12T10:56:03;100580.00;;;26.90
11849;BMP180;5983;49.966;8.052;2022-09-12T10:58:50;100587.00;;;26.80
11849;BMP180;5983;49.966;8.052;2022-09-12T11:01:37;100582.00;;;26.70
11849;BMP180;5983;49.966;8.052;2022-09-12T11:04:37;100569.00;;;26.70
11849;BMP180;5983;49.966;8.052;2022-09-12T11:07:38;100571.00;;;26.90
11849;BMP180;5983;49.966;8.052;2022-09-12T11:10:24;100570.00;;;26.90
11849;BMP180;5983;49.966;8.052;2022-09-12T11:13:09;100557.00;;;27.00
11849;BMP180;5983;49.966;8.052;2022-09-12T11:15:57;100563.00;;;27.00
11849;BMP180;5983;49.966;8.052;2022-09-12T11:18:46;100571.00;;;26.90
11849;BMP180;5983;49.966;8.052;2022-09-12T11:21:30;100567.00;;;27.00
11849;BMP180;5983;49.966;8.052;2022-09-12T11:24:30;100564.00;;;27.20
11849;BMP180;5983;49.966;8.052;2022-09-12T11:27:21;100567.00;;;27.20
11849;BMP180;5983;49.966;8.052;2022-09-12T11:29:56;100558.00;;;27.00
11849;BMP180;5983;49.966;8.052;2022-09-12T11:32:54;100569.00;;;26.90
11849;BMP180;5983;49.966;8.052;2022-09-12T11:35:28;100566.00;;;27.00
11849;BMP180;5983;49.966;8.052;2022-09-12T11:38:21;100567.00;;;27.10
11849;BMP180;5983;49.966;8.052;2022-09-12T11:40:54;100551.00;;;27.20
11849;BMP180;5983;49.966;8.052;2022-09-12T11:43:32;100553.00;;;27.20
11849;BMP180;5983;49.966;8.052;2022-09-12T11:46:11;100557.00;;;27.20
11849;BMP180;5983;49.966;8.052;2022-09-12T11:48:47;100559.00;;;27.10
11849;BMP180;5983;49.966;8.052;2022-09-12T11:51:19;100555.00;;;27.00
11849;BMP180;5983;49.966;8.052;2022-09-12T11:54:12;100539.00;;;27.10
11849;BMP180;5983;49.966;8.052;2022-09-12T11:56:45;100534.00;;;27.20
11849;BMP180;5983;49.966;8.052;2022-09-12T11:59:27;100537.00;;;27.20
11849;BMP180;5983;49.966;8.052;2022-09-12T12:01:58;100535.00;;;27.30
11849;BMP180;5983;49.966;8.052;2022-09-12T12:04:35;100536.00;;;27.60
11849;BMP180;5983;49.966;8.052;2022-09-12T12:07:06;100532.00;;;27.60
11849;BMP180;5983;49.966;8.052;2022-09-12T12:09:49;100528.00;;;27.50
11849;BMP180;5983;49.966;8.052;2022-09-12T12:12:22;100522.00;;;27.30
11849;BMP180;5983;49.966;8.052;2022-09-12T12:14:53;100517.00;;;27.30
11849;BMP180;5983;49.966;8.052;2022-09-12T12:17:24;100524.00;;;27.30
11849;BMP180;5983;49.966;8.052;2022-09-12T12:19:58;100528.00;;;27.30
11849;BMP180;5983;49.966;8.052;2022-09-12T12:22:26;100530.00;;;27.50
11849;BMP180;5983;49.966;8.052;2022-09-12T12:25:07;100518.00;;;27.50
11849;BMP180;5983;49.966;8.052;2022-09-12T12:27:54;100515.00;;;27.50
11849;BMP180;5983;49.966;8.052;2022-09-12T12:30:58;100511.00;;;27.60
11849;BMP180;5983;49.966;8.052;2022-09-12T12:34:18;100506.00;;;27.70
11849;BMP180;5983;49.966;8.052;2022-09-12T12:36:46;100499.00;;;27.80
11849;BMP180;5983;49.966;8.052;2022-09-12T12:39:58;100501.00;;;27.90
11849;BMP180;5983;49.966;8.052;2022-09-12T12:43:04;100499.00;;;27.90
11849;BMP180;5983;49.966;8.052;2022-09-12T12:46:10;100489.00;;;27.80
11849;BMP180;5983;49.966;8.052;2022-09-12T12:49:10;100492.00;;;27.50
11849;BMP180;5983;49.966;8.052;2022-09-12T12:51:56;100486.00;;;27.20
11849;BMP180;5983;49.966;8.052;2022-09-12T13:00:28;100472.00;;;27.20
11849;BMP180;5983;49.966;8.052;2022-09-12T13:03:01;100475.00;;;27.30
11849;BMP180;5983;49.966;8.052;2022-09-12T13:05:41;100474.00;;;27.40
11849;BMP180;5983;49.966;8.052;2022-09-12T13:08:27;100470.00;;;27.30
11849;BMP180;5983;49.966;8.052;2022-09-12T13:11:00;100478.00;;;27.30
11849;BMP180;5983;49.966;8.052;2022-09-12T13:13:35;100465.00;;;27.40
11849;BMP180;5983;49.966;8.052;2022-09-12T13:16:03;100461.00;;;27.30
11849;BMP180;5983;49.966;8.052;2022-09-12T13:18:42;100464.00;;;27.20
11849;BMP180;5983;49.966;8.052;2022-09-12T13:21:15;100459.00;;;27.10
11849;BMP180;5983;49.966;8.052;2022-09-12T13:23:45;100450.00;;;27.00
11849;BMP180;5983;49.966;8.052;2022-09-12T13:26:25;100437.00;;;26.90
11849;BMP180;5983;49.966;8.052;2022-09-12T13:29:14;100446.00;;;27.00
11849;BMP180;5983;49.966;8.052;2022-09-12T13:31:42;100451.00;;;27.10
11849;BMP180;5983;49.966;8.052;2022-09-12T13:34:16;100438.00;;;27.00
11849;BMP180;5983;49.966;8.052;2022-09-12T13:37:29;100436.00;;;27.00
11849;BMP180;5983;49.966;8.052;2022-09-12T13:40:16;100430.00;;;26.80
11849;BMP180;5983;49.966;8.052;2022-09-12T13:42:47;100438.00;;;26.60
11849;BMP180;5983;49.966;8.052;2022-09-12T13:45:19;100430.00;;;26.70
11849;BMP180;5983;49.966;8.052;2022-09-12T13:47:51;100425.00;;;26.80
11849;BMP180;5983;49.966;8.052;2022-09-12T13:50:23;100428.00;;;26.80
11849;BMP180;5983;49.966;8.052;2022-09-12T13:52:54;100423.00;;;26.80
11849;BMP180;5983;49.966;8.052;2022-09-12T13:55:29;100425.00;;;26.80
11849;BMP180;5983;49.966;8.052;2022-09-12T13:58:00;100417.00;;;26.70
11849;BMP180;5983;49.966;8.052;2022-09-12T14:00:31;100409.00;;;26.70
11849;BMP180;5983;49.966;8.052;2022-09-12T14:03:00;100409.00;;;26.70
11849;BMP180;5983;49.966;8.052;2022-09-12T14:05:54;100405.00;;;26.60
11849;BMP180;5983;49.966;8.052;2022-09-12T14:08:23;100402.00;;;26.60
11849;BMP180;5983;49.966;8.052;2022-09-12T14:10:50;100405.00;;;26.60
11849;BMP180;5983;49.966;8.052;2022-09-12T14:13:22;100400.00;;;26.50
11849;BMP180;5983;49.966;8.052;2022-09-12T14:15:54;100398.00;;;26.50
11849;BMP180;5983;49.966;8.052;2022-09-12T14:18:24;100396.00;;;26.50
11849;BMP180;5983;49.966;8.052;2022-09-12T14:20:53;100391.00;;;26.50
11849;BMP180;5983;49.966;8.052;2022-09-12T14:23:27;100393.00;;;26.50
11849;BMP180;5983;49.966;8.052;2022-09-12T14:25:57;100391.00;;;26.40
11849;BMP180;5983;49.966;8.052;2022-09-12T14:28:25;100390.00;;;26.30
11849;BMP180;5983;49.966;8.052;2022-09-12T14:31:01;100388.00;;;26.20
11849;BMP180;5983;49.966;8.052;2022-09-12T14:33:33;100387.00;;;26.10
11849;BMP180;5983;49.966;8.052;2022-09-12T14:36:19;100374.00;;;26.00
11849;BMP180;5983;49.966;8.052;2022-09-12T14:38:54;100373.00;;;26.00
11849;BMP180;5983;49.966;8.052;2022-09-12T14:41:30;100365.00;;;25.90
11849;BMP180;5983;49.966;8.052;2022-09-12T14:44:02;100364.00;;;25.90
11849;BMP180;5983;49.966;8.052;2022-09-12T14:46:36;100361.00;;;25.90
11849;BMP180;5983;49.966;8.052;2022-09-12T14:49:08;100361.00;;;25.90
11849;BMP180;5983;49.966;8.052;2022-09-12T14:51:39;100364.00;;;25.90
11849;BMP180;5983;49.966;8.052;2022-09-12T14:54:37;100359.00;;;25.80
11849;BMP180;5983;49.966;8.052;2022-09-12T14:57:34;100363.00;;;25.70
11849;BMP180;5983;49.966;8.052;2022-09-12T15:00:21;100354.00;;;25.50